sensor_id;sensor_type;location;lat;lon;timestamp;pressure;altitude;pressure_sealevel;temperature;humidity
64023;BME280;50264;52.088;5.296;2022-08-19T00:02:59;101331.0;;;17.16;88.96
64023;BME280;50264;52.088;5.296;2022-08-19T00:04:36;101330.0;;;17.09;88.77
64023;BME280;50264;52.088;5.296;2022-08-19T00:06:12;101331.0;;;17.11;89.06
64023;BME280;50264;52.088;5.296;2022-08-19T00:07:49;101330.0;;;17.06;88.8
64023;BME280;50264;52.088;5.296;2022-08-19T00:11:04;101330.0;;;17.11;88.8
64023;BME280;50264;52.088;5.296;2022-08-19T00:12:42;101334.0;;;17.12;88.19
64023;BME280;50264;52.088;5.296;2022-08-19T00:14:18;101335.0;;;17.07;88.12
64023;BME280;50264;52.088;5.296;2022-08-19T00:17:31;101337.0;;;17.02;88.24
64023;BME280;50264;52.088;5.296;2022-08-19T00:19:08;101339.0;;;16.95;88.62
64023;BME280;50264;52.088;5.296;2022-08-19T00:20:45;101331.0;;;16.86;88.48
64023;BME280;50264;52.088;5.296;2022-08-19T00:23:58;101335.0;;;16.89;88.9
64023;BME280;50264;52.088;5.296;2022-08-19T00:25:36;101336.0;;;16.91;88.85
64023;BME280;50264;52.088;5.296;2022-08-19T00:27:12;101337.0;;;16.91;89.66
64023;BME280;50264;52.088;5.296;2022-08-19T00:28:49;101333.0;;;16.88;88.66
64023;BME280;50264;52.088;5.296;2022-08-19T00:32:05;101330.0;;;16.9;88.99
64023;BME280;50264;52.088;5.296;2022-08-19T00:33:41;101332.0;;;16.89;88.19
64023;BME280;50264;52.088;5.296;2022-08-19T00:35:18;101334.0;;;16.86;87.9
64023;BME280;50264;52.088;5.296;2022-08-19T00:38:31;101331.0;;;16.81;88.11
64023;BME280;50264;52.088;5.296;2022-08-19T00:40:11;101333.0;;;16.75;88.2
64023;BME280;50264;52.088;5.296;2022-08-19T00:41:50;101336.0;;;16.75;88.27
64023;BME280;50264;52.088;5.296;2022-08-19T00:43:27;101333.0;;;16.72;88.69
64023;BME280;50264;52.088;5.296;2022-08-19T00:46:49;101327.0;;;16.95;88.28
64023;BME280;50264;52.088;5.296;2022-08-19T00:48:26;101327.0;;;16.9;87.62
64023;BME280;50264;52.088;5.296;2022-08-19T00:50:03;101331.0;;;16.77;87.63
64023;BME280;50264;52.088;5.296;2022-08-19T00:53:24;101331.0;;;16.73;87.77
64023;BME280;50264;52.088;5.296;2022-08-19T00:55:06;101333.0;;;16.73;87.66
64023;BME280;50264;52.088;5.296;2022-08-19T00:56:45;101335.0;;;16.66;87.76
64023;BME280;50264;52.088;5.296;2022-08-19T00:58:25;101333.0;;;16.68;87.9
64023;BME280;50264;52.088;5.296;2022-08-19T01:00:07;101336.0;;;16.61;87.89
64023;BME280;50264;52.088;5.296;2022-08-19T01:03:23;101334.0;;;16.55;87.96
64023;BME280;50264;52.088;5.296;2022-08-19T01:05:02;101330.0;;;16.53;87.92
64023;BME280;50264;52.088;5.296;2022-08-19T01:06:41;101330.0;;;16.56;87.54
64023;BME280;50264;52.088;5.296;2022-08-19T01:09:55;101331.0;;;16.53;87.93
64023;BME280;50264;52.088;5.296;2022-08-19T01:11:35;101331.0;;;16.53;87.77
64023;BME280;50264;52.088;5.296;2022-08-19T01:13:20;101331.0;;;16.43;87.94
64023;BME280;50264;52.088;5.296;2022-08-19T01:14:59;101330.0;;;16.38;88.43
64023;BME280;50264;52.088;5.296;2022-08-19T01:18:17;101322.0;;;16.41;88.19
64023;BME280;50264;52.088;5.296;2022-08-19T01:19:54;101320.0;;;16.36;88.47
64023;BME280;50264;52.088;5.296;2022-08-19T01:21:42;101321.0;;;16.5;88.17
64023;BME280;50264;52.088;5.296;2022-08-19T01:23:20;101322.0;;;16.36;87.98
64023;BME280;50264;52.088;5.296;2022-08-19T01:26:38;101322.0;;;16.27;87.97
64023;BME280;50264;52.088;5.296;2022-08-19T01:28:18;101325.0;;;16.27;88.24
64023;BME280;50264;52.088;5.296;2022-08-19T01:29:55;101326.0;;;16.34;87.93
64023;BME280;50264;52.088;5.296;2022-08-19T01:31:31;101331.0;;;16.31;87.33
64023;BME280;50264;52.088;5.296;2022-08-19T01:34:46;101327.0;;;16.18;88.17
64023;BME280;50264;52.088;5.296;2022-08-19T01:36:25;101330.0;;;16.09;88.43
64023;BME280;50264;52.088;5.296;2022-08-19T01:38:10;101333.0;;;16.04;88.8
64023;BME280;50264;52.088;5.296;2022-08-19T01:41:24;101336.0;;;16.12;88.75
64023;BME280;50264;52.088;5.296;2022-08-19T01:43:01;101340.0;;;16.09;88.21
64023;BME280;50264;52.088;5.296;2022-08-19T01:44:38;101344.0;;;16.05;88.46
64023;BME280;50264;52.088;5.296;2022-08-19T01:46:15;101340.0;;;16.02;88.5
64023;BME280;50264;52.088;5.296;2022-08-19T01:49:29;101334.0;;;15.98;88.87
64023;BME280;50264;52.088;5.296;2022-08-19T01:51:08;101332.0;;;15.99;88.24
64023;BME280;50264;52.088;5.296;2022-08-19T01:52:46;101330.0;;;16.02;88.95
64023;BME280;50264;52.088;5.296;2022-08-19T01:56:01;101337.0;;;16.07;88.28
64023;BME280;50264;52.088;5.296;2022-08-19T01:57:41;101333.0;;;16.0;88.06
64023;BME280;50264;52.088;5.296;2022-08-19T01:59:22;101339.0;;;15.98;88.14
64023;BME280;50264;52.088;5.296;2022-08-19T02:01:00;101336.0;;;15.98;87.93
64023;BME280;50264;52.088;5.296;2022-08-19T02:04:12;101335.0;;;15.93;88.17
64023;BME280;50264;52.088;5.296;2022-08-19T02:05:55;101337.0;;;15.92;88.21
64023;BME280;50264;52.088;5.296;2022-08-19T02:07:32;101335.0;;;15.92;87.99
64023;BME280;50264;52.088;5.296;2022-08-19T02:09:09;101337.0;;;15.88;88.04
64023;BME280;50264;52.088;5.296;2022-08-19T02:12:22;101339.0;;;15.87;88.05
64023;BME280;50264;52.088;5.296;2022-08-19T02:13:59;101340.0;;;15.8;88.85
64023;BME280;50264;52.088;5.296;2022-08-19T02:15:36;101344.0;;;15.8;89.27
64023;BME280;50264;52.088;5.296;2022-08-19T02:18:50;101343.0;;;15.83;89.33
64023;BME280;50264;52.088;5.296;2022-08-19T02:20:26;101338.0;;;15.84;89.25
64023;BME280;50264;52.088;5.296;2022-08-19T02:22:03;101334.0;;;15.93;88.53
64023;BME280;50264;52.088;5.296;2022-08-19T02:25:16;101332.0;;;15.81;88.58
64023;BME280;50264;52.088;5.296;2022-08-19T02:26:52;101331.0;;;15.85;89.15
64023;BME280;50264;52.088;5.296;2022-08-19T02:28:29;101331.0;;;15.87;88.56
64023;BME280;50264;52.088;5.296;2022-08-19T02:30:08;101334.0;;;15.84;88.9
64023;BME280;50264;52.088;5.296;2022-08-19T02:33:23;101341.0;;;15.81;88.52
64023;BME280;50264;52.088;5.296;2022-08-19T02:35:00;101346.0;;;15.83;88.82
64023;BME280;50264;52.088;5.296;2022-08-19T02:36:36;101347.0;;;15.83;88.86
64023;BME280;50264;52.088;5.296;2022-08-19T02:40:07;101344.0;;;15.96;88.77
64023;BME280;50264;52.088;5.296;2022-08-19T02:41:44;101345.0;;;16.04;88.19
64023;BME280;50264;52.088;5.296;2022-08-19T02:43:21;101353.0;;;16.11;87.99
64023;BME280;50264;52.088;5.296;2022-08-19T02:44:58;101362.0;;;15.95;87.54
64023;BME280;50264;52.088;5.296;2022-08-19T02:48:11;101362.0;;;15.85;88.01
64023;BME280;50264;52.088;5.296;2022-08-19T02:49:49;101360.0;;;15.85;88.3
64023;BME280;50264;52.088;5.296;2022-08-19T02:51:29;101358.0;;;15.81;88.21
64023;BME280;50264;52.088;5.296;2022-08-19T02:53:08;101345.0;;;15.77;88.61
64023;BME280;50264;52.088;5.296;2022-08-19T02:56:23;101349.0;;;15.91;87.47
64023;BME280;50264;52.088;5.296;2022-08-19T02:57:59;101347.0;;;15.85;87.96
64023;BME280;50264;52.088;5.296;2022-08-19T02:59:36;101351.0;;;15.78;87.92
64023;BME280;50264;52.088;5.296;2022-08-19T03:02:57;101347.0;;;15.76;88.24
64023;BME280;50264;52.088;5.296;2022-08-19T03:04:33;101345.0;;;15.93;87.9
64023;BME280;50264;52.088;5.296;2022-08-19T03:06:12;101343.0;;;15.93;88.04
64023;BME280;50264;52.088;5.296;2022-08-19T03:07:49;101335.0;;;15.91;87.75
64023;BME280;50264;52.088;5.296;2022-08-19T03:11:03;101331.0;;;15.82;87.56
64023;BME280;50264;52.088;5.296;2022-08-19T03:12:40;101332.0;;;15.75;87.78
64023;BME280;50264;52.088;5.296;2022-08-19T03:14:18;101334.0;;;15.69;87.79
64023;BME280;50264;52.088;5.296;2022-08-19T03:17:30;101339.0;;;15.66;87.51
64023;BME280;50264;52.088;5.296;2022-08-19T03:19:06;101337.0;;;15.74;87.95
64023;BME280;50264;52.088;5.296;2022-08-19T03:20:44;101330.0;;;15.7;87.03
64023;BME280;50264;52.088;5.296;2022-08-19T03:22:21;101327.0;;;15.64;87.52
64023;BME280;50264;52.088;5.296;2022-08-19T03:25:45;101330.0;;;15.5;87.68
64023;BME280;50264;52.088;5.296;2022-08-19T03:27:24;101333.0;;;15.39;87.31
64023;BME280;50264;52.088;5.296;2022-08-19T03:29:02;101332.0;;;15.42;87.77
64023;BME280;50264;52.088;5.296;2022-08-19T03:32:19;101333.0;;;15.59;87.34
64023;BME280;50264;52.088;5.296;2022-08-19T03:33:55;101333.0;;;15.53;87.06
64023;BME280;50264;52.088;5.296;2022-08-19T03:35:31;101336.0;;;15.46;87.66
64023;BME280;50264;52.088;5.296;2022-08-19T03:37:10;101337.0;;;15.43;87.65
64023;BME280;50264;52.088;5.296;2022-08-19T03:40:30;101330.0;;;15.47;87.58
64023;BME280;50264;52.088;5.296;2022-08-19T03:42:08;101333.0;;;15.46;87.16
64023;BME280;50264;52.088;5.296;2022-08-19T03:43:47;101334.0;;;15.43;87.65
64023;BME280;50264;52.088;5.296;2022-08-19T03:45:23;101341.0;;;15.37;87.48
64023;BME280;50264;52.088;5.296;2022-08-19T03:48:37;101342.0;;;15.27;87.89
64023;BME280;50264;52.088;5.296;2022-08-19T03:50:15;101339.0;;;15.22;87.99
64023;BME280;50264;52.088;5.296;2022-08-19T03:51:53;101332.0;;;15.41;88.03
64023;BME280;50264;52.088;5.296;2022-08-19T03:55:08;101325.0;;;15.41;88.33
64023;BME280;50264;52.088;5.296;2022-08-19T03:56:47;101330.0;;;15.21;87.5
64023;BME280;50264;52.088;5.296;2022-08-19T03:58:25;101326.0;;;15.14;87.68
64023;BME280;50264;52.088;5.296;2022-08-19T04:00:05;101328.0;;;15.11;87.49
64023;BME280;50264;52.088;5.296;2022-08-19T04:03:19;101328.0;;;15.09;87.77
64023;BME280;50264;52.088;5.296;2022-08-19T04:04:55;101334.0;;;15.07;88.22
64023;BME280;50264;52.088;5.296;2022-08-19T04:06:32;101339.0;;;14.96;88.24
64023;BME280;50264;52.088;5.296;2022-08-19T04:09:47;101338.0;;;15.0;88.79
64023;BME280;50264;52.088;5.296;2022-08-19T04:11:26;101333.0;;;14.99;88.12
64023;BME280;50264;52.088;5.296;2022-08-19T04:13:04;101330.0;;;15.03;88.11
64023;BME280;50264;52.088;5.296;2022-08-19T04:14:41;101328.0;;;15.06;88.38
64023;BME280;50264;52.088;5.296;2022-08-19T04:17:56;101327.0;;;15.17;87.5
64023;BME280;50264;52.088;5.296;2022-08-19T04:19:33;101323.0;;;15.08;87.75
64023;BME280;50264;52.088;5.296;2022-08-19T04:21:16;101325.0;;;15.1;88.09
64023;BME280;50264;52.088;5.296;2022-08-19T04:24:29;101331.0;;;15.09;88.75
64023;BME280;50264;52.088;5.296;2022-08-19T04:26:06;101330.0;;;15.11;88.04
64023;BME280;50264;52.088;5.296;2022-08-19T04:27:46;101332.0;;;15.06;87.81
64023;BME280;50264;52.088;5.296;2022-08-19T04:29:25;101330.0;;;15.03;88.15
64023;BME280;50264;52.088;5.296;2022-08-19T04:32:37;101331.0;;;15.09;88.31
64023;BME280;50264;52.088;5.296;2022-08-19T04:34:19;101330.0;;;15.15;88.07
64023;BME280;50264;52.088;5.296;2022-08-19T04:35:58;101321.0;;;15.18;88.08
64023;BME280;50264;52.088;5.296;2022-08-19T04:39:13;101316.0;;;15.34;88.18
64023;BME280;50264;52.088;5.296;2022-08-19T04:43:47;101314.0;;;15.24;87.53
64023;BME280;50264;52.088;5.296;2022-08-19T04:45:24;101315.0;;;15.31;87.62
64023;BME280;50264;52.088;5.296;2022-08-19T04:47:00;101312.0;;;15.26;87.06
64023;BME280;50264;52.088;5.296;2022-08-19T04:48:38;101316.0;;;15.16;87.34
64023;BME280;50264;52.088;5.296;2022-08-19T04:50:15;101317.0;;;15.16;87.93
64023;BME280;50264;52.088;5.296;2022-08-19T04:53:33;101315.0;;;15.18;88.04
64023;BME280;50264;52.088;5.296;2022-08-19T04:55:10;101314.0;;;15.24;87.87
64023;BME280;50264;52.088;5.296;2022-08-19T04:56:50;101314.0;;;15.26;87.99
64023;BME280;50264;52.088;5.296;2022-08-19T05:00:06;101323.0;;;15.3;87.59
64023;BME280;50264;52.088;5.296;2022-08-19T05:01:42;101332.0;;;15.28;87.78
64023;BME280;50264;52.088;5.296;2022-08-19T05:03:19;101342.0;;;15.23;87.67
64023;BME280;50264;52.088;5.296;2022-08-19T05:04:57;101342.0;;;15.23;87.64
64023;BME280;50264;52.088;5.296;2022-08-19T05:08:12;101349.0;;;15.2;87.9
64023;BME280;50264;52.088;5.296;2022-08-19T05:09:50;101351.0;;;15.21;87.8
64023;BME280;50264;52.088;5.296;2022-08-19T05:11:28;101355.0;;;15.19;88.3
64023;BME280;50264;52.088;5.296;2022-08-19T05:14:47;101355.0;;;15.2;88.12
64023;BME280;50264;52.088;5.296;2022-08-19T05:16:26;101353.0;;;15.28;88.12
64023;BME280;50264;52.088;5.296;2022-08-19T05:24:29;101344.0;;;15.51;87.91
64023;BME280;50264;52.088;5.296;2022-08-19T05:26:06;101350.0;;;15.51;87.93
64023;BME280;50264;52.088;5.296;2022-08-19T05:29:20;101350.0;;;15.48;87.76
64023;BME280;50264;52.088;5.296;2022-08-19T05:30:57;101349.0;;;15.51;88.68
64023;BME280;50264;52.088;5.296;2022-08-19T05:32:33;101356.0;;;15.58;87.76
64023;BME280;50264;52.088;5.296;2022-08-19T05:34:11;101353.0;;;15.65;88.25
64023;BME280;50264;52.088;5.296;2022-08-19T05:37:27;101353.0;;;15.6;88.54
64023;BME280;50264;52.088;5.296;2022-08-19T05:39:04;101347.0;;;15.62;88.35
64023;BME280;50264;52.088;5.296;2022-08-19T05:40:42;101347.0;;;15.67;88.93
64023;BME280;50264;52.088;5.296;2022-08-19T05:43:57;101349.0;;;15.63;88.44
64023;BME280;50264;52.088;5.296;2022-08-19T05:45:38;101346.0;;;15.66;88.91
64023;BME280;50264;52.088;5.296;2022-08-19T05:47:16;101341.0;;;15.72;89.16
64023;BME280;50264;52.088;5.296;2022-08-19T05:48:53;101346.0;;;15.82;88.67
64023;BME280;50264;52.088;5.296;2022-08-19T05:52:10;101346.0;;;15.79;88.28
64023;BME280;50264;52.088;5.296;2022-08-19T05:53:47;101345.0;;;15.83;88.82
64023;BME280;50264;52.088;5.296;2022-08-19T05:55:23;101350.0;;;15.84;88.67
64023;BME280;50264;52.088;5.296;2022-08-19T05:58:38;101350.0;;;15.8;88.74
64023;BME280;50264;52.088;5.296;2022-08-19T06:00:15;101346.0;;;15.92;88.66
64023;BME280;50264;52.088;5.296;2022-08-19T06:01:54;101344.0;;;16.04;89.06
64023;BME280;50264;52.088;5.296;2022-08-19T06:03:32;101346.0;;;16.09;89.3
64023;BME280;50264;52.088;5.296;2022-08-19T06:06:48;101343.0;;;16.21;88.77
64023;BME280;50264;52.088;5.296;2022-08-19T06:08:25;101342.0;;;16.31;88.75
64023;BME280;50264;52.088;5.296;2022-08-19T06:10:02;101348.0;;;16.41;88.94
64023;BME280;50264;52.088;5.296;2022-08-19T06:13:20;101339.0;;;16.41;88.6
64023;BME280;50264;52.088;5.296;2022-08-19T06:14:58;101338.0;;;16.5;88.41
64023;BME280;50264;52.088;5.296;2022-08-19T06:16:37;101339.0;;;16.52;88.33
64023;BME280;50264;52.088;5.296;2022-08-19T06:18:15;101342.0;;;16.59;88.72
64023;BME280;50264;52.088;5.296;2022-08-19T06:21:29;101345.0;;;16.66;88.66
64023;BME280;50264;52.088;5.296;2022-08-19T06:23:07;101344.0;;;16.78;89.22
64023;BME280;50264;52.088;5.296;2022-08-19T06:24:43;101346.0;;;17.02;88.87
64023;BME280;50264;52.088;5.296;2022-08-19T06:27:57;101340.0;;;17.02;88.73
64023;BME280;50264;52.088;5.296;2022-08-19T06:29:34;101336.0;;;17.09;89.0
64023;BME280;50264;52.088;5.296;2022-08-19T06:31:14;101337.0;;;17.25;89.49
64023;BME280;50264;52.088;5.296;2022-08-19T06:32:52;101342.0;;;17.34;89.69
64023;BME280;50264;52.088;5.296;2022-08-19T06:36:16;101343.0;;;17.41;89.33
64023;BME280;50264;52.088;5.296;2022-08-19T06:37:53;101341.0;;;17.52;90.36
64023;BME280;50264;52.088;5.296;2022-08-19T06:39:32;101347.0;;;17.66;89.77
64023;BME280;50264;52.088;5.296;2022-08-19T06:41:14;101348.0;;;17.77;89.6
64023;BME280;50264;52.088;5.296;2022-08-19T06:44:29;101346.0;;;17.87;89.03
64023;BME280;50264;52.088;5.296;2022-08-19T06:46:11;101351.0;;;17.98;88.7
64023;BME280;50264;52.088;5.296;2022-08-19T06:47:48;101349.0;;;18.18;91.76
64023;BME280;50264;52.088;5.296;2022-08-19T06:49:27;101353.0;;;18.34;92.25
64023;BME280;50264;52.088;5.296;2022-08-19T06:52:44;101357.0;;;18.34;90.01
64023;BME280;50264;52.088;5.296;2022-08-19T06:54:20;101356.0;;;18.37;89.74
64023;BME280;50264;52.088;5.296;2022-08-19T06:56:00;101352.0;;;18.45;91.96
64023;BME280;50264;52.088;5.296;2022-08-19T06:59:15;101356.0;;;18.53;91.28
64023;BME280;50264;52.088;5.296;2022-08-19T07:01:02;101352.0;;;18.59;91.69
64023;BME280;50264;52.088;5.296;2022-08-19T07:02:40;101356.0;;;18.77;92.14
64023;BME280;50264;52.088;5.296;2022-08-19T07:04:18;101351.0;;;18.86;91.39
64023;BME280;50264;52.088;5.296;2022-08-19T07:07:35;101355.0;;;18.84;91.6
64023;BME280;50264;52.088;5.296;2022-08-19T07:09:13;101355.0;;;18.81;91.34
64023;BME280;50264;52.088;5.296;2022-08-19T07:10:53;101359.0;;;18.95;91.36
64023;BME280;50264;52.088;5.296;2022-08-19T07:12:30;101358.0;;;19.04;91.49
64023;BME280;50264;52.088;5.296;2022-08-19T07:15:46;101363.0;;;19.18;90.8
64023;BME280;50264;52.088;5.296;2022-08-19T07:17:22;101362.0;;;19.25;90.44
64023;BME280;50264;52.088;5.296;2022-08-19T07:18:59;101366.0;;;19.2;89.33
64023;BME280;50264;52.088;5.296;2022-08-19T07:22:15;101368.0;;;19.34;90.08
64023;BME280;50264;52.088;5.296;2022-08-19T07:23:52;101367.0;;;19.29;90.02
64023;BME280;50264;52.088;5.296;2022-08-19T07:25:28;101368.0;;;19.45;90.15
64023;BME280;50264;52.088;5.296;2022-08-19T07:27:06;101364.0;;;19.5;90.3
64023;BME280;50264;52.088;5.296;2022-08-19T07:30:23;101363.0;;;19.59;89.52
64023;BME280;50264;52.088;5.296;2022-08-19T07:32:00;101365.0;;;19.61;88.25
64023;BME280;50264;52.088;5.296;2022-08-19T07:33:37;101363.0;;;19.57;89.08
64023;BME280;50264;52.088;5.296;2022-08-19T07:36:51;101365.0;;;19.61;89.06
64023;BME280;50264;52.088;5.296;2022-08-19T07:38:28;101363.0;;;19.63;88.95
64023;BME280;50264;52.088;5.296;2022-08-19T07:40:06;101363.0;;;19.77;88.73
64023;BME280;50264;52.088;5.296;2022-08-19T07:41:43;101366.0;;;19.87;88.58
64023;BME280;50264;52.088;5.296;2022-08-19T07:45:04;101366.0;;;19.88;86.49
64023;BME280;50264;52.088;5.296;2022-08-19T07:46:47;101360.0;;;19.91;87.65
64023;BME280;50264;52.088;5.296;2022-08-19T07:48:29;101370.0;;;19.98;87.64
64023;BME280;50264;52.088;5.296;2022-08-19T07:50:09;101374.0;;;20.0;87.47
64023;BME280;50264;52.088;5.296;2022-08-19T07:53:25;101381.0;;;20.11;86.91
64023;BME280;50264;52.088;5.296;2022-08-19T07:55:05;101382.0;;;20.14;86.0
64023;BME280;50264;52.088;5.296;2022-08-19T07:56:42;101380.0;;;20.21;87.12
64023;BME280;50264;52.088;5.296;2022-08-19T07:59:58;101383.0;;;20.36;86.39
64023;BME280;50264;52.088;5.296;2022-08-19T08:01:35;101378.0;;;20.14;86.14
64023;BME280;50264;52.088;5.296;2022-08-19T08:03:13;101380.0;;;20.22;86.77
64023;BME280;50264;52.088;5.296;2022-08-19T08:09:31;101380.0;;;20.38;85.91
64023;BME280;50264;52.088;5.296;2022-08-19T08:11:09;101388.0;;;20.55;85.25
64023;BME280;50264;52.088;5.296;2022-08-19T08:14:25;101391.0;;;20.61;83.14
64023;BME280;50264;52.088;5.296;2022-08-19T08:16:03;101390.0;;;20.73;84.31
64023;BME280;50264;52.088;5.296;2022-08-19T08:17:41;101395.0;;;20.74;83.38
64023;BME280;50264;52.088;5.296;2022-08-19T08:20:57;101397.0;;;20.86;83.12
64023;BME280;50264;52.088;5.296;2022-08-19T08:23:38;101401.0;;;20.99;83.55
64023;BME280;50264;52.088;5.296;2022-08-19T08:25:16;101400.0;;;21.04;81.78
64023;BME280;50264;52.088;5.296;2022-08-19T08:26:57;101399.0;;;21.14;82.46
64023;BME280;50264;52.088;5.296;2022-08-19T08:28:35;101401.0;;;21.11;81.41
64023;BME280;50264;52.088;5.296;2022-08-19T08:30:14;101400.0;;;21.15;81.05
64023;BME280;50264;52.088;5.296;2022-08-19T08:33:30;101402.0;;;21.14;80.84
64023;BME280;50264;52.088;5.296;2022-08-19T08:35:10;101406.0;;;21.23;79.86
64023;BME280;50264;52.088;5.296;2022-08-19T08:36:48;101408.0;;;21.25;80.3
64023;BME280;50264;52.088;5.296;2022-08-19T08:38:25;101410.0;;;21.37;81.33
64023;BME280;50264;52.088;5.296;2022-08-19T08:41:47;101408.0;;;21.54;80.05
64023;BME280;50264;52.088;5.296;2022-08-19T08:43:34;101412.0;;;21.56;77.31
64023;BME280;50264;52.088;5.296;2022-08-19T08:45:16;101411.0;;;21.59;78.64
64023;BME280;50264;52.088;5.296;2022-08-19T08:46:56;101415.0;;;21.62;77.8
64023;BME280;50264;52.088;5.296;2022-08-19T08:50:24;101415.0;;;21.53;76.8
64023;BME280;50264;52.088;5.296;2022-08-19T08:52:06;101418.0;;;21.41;77.31
64023;BME280;50264;52.088;5.296;2022-08-19T08:53:49;101414.0;;;21.51;78.0
64023;BME280;50264;52.088;5.296;2022-08-19T08:55:28;101406.0;;;21.53;77.41
64023;BME280;50264;52.088;5.296;2022-08-19T08:57:10;101405.0;;;21.76;77.36
64023;BME280;50264;52.088;5.296;2022-08-19T09:00:40;101403.0;;;21.82;75.22
64023;BME280;50264;52.088;5.296;2022-08-19T09:02:20;101405.0;;;21.76;75.44
64023;BME280;50264;52.088;5.296;2022-08-19T09:03:56;101405.0;;;21.88;76.64
64023;BME280;50264;52.088;5.296;2022-08-19T09:05:39;101410.0;;;22.01;74.69
64023;BME280;50264;52.088;5.296;2022-08-19T09:09:34;101410.0;;;22.0;73.97
64023;BME280;50264;52.088;5.296;2022-08-19T09:11:17;101413.0;;;22.17;73.8
64023;BME280;50264;52.088;5.296;2022-08-19T09:13:13;101419.0;;;22.2;74.47
64023;BME280;50264;52.088;5.296;2022-08-19T09:15:03;101420.0;;;22.31;73.97
64023;BME280;50264;52.088;5.296;2022-08-19T09:16:41;101425.0;;;22.3;72.22
64023;BME280;50264;52.088;5.296;2022-08-19T09:18:18;101430.0;;;22.32;73.11
64023;BME280;50264;52.088;5.296;2022-08-19T09:21:35;101425.0;;;22.33;74.08
64023;BME280;50264;52.088;5.296;2022-08-19T09:23:11;101422.0;;;22.32;72.02
64023;BME280;50264;52.088;5.296;2022-08-19T09:24:48;101426.0;;;22.27;71.78
64023;BME280;50264;52.088;5.296;2022-08-19T09:26:25;101419.0;;;22.36;73.34
64023;BME280;50264;52.088;5.296;2022-08-19T09:29:39;101425.0;;;22.45;73.33
64023;BME280;50264;52.088;5.296;2022-08-19T09:31:19;101421.0;;;22.6;73.03
64023;BME280;50264;52.088;5.296;2022-08-19T09:33:01;101422.0;;;22.72;71.94
64023;BME280;50264;52.088;5.296;2022-08-19T09:36:16;101424.0;;;22.95;71.61
64023;BME280;50264;52.088;5.296;2022-08-19T09:37:55;101426.0;;;22.89;68.7
64023;BME280;50264;52.088;5.296;2022-08-19T09:39:31;101426.0;;;22.99;69.63
64023;BME280;50264;52.088;5.296;2022-08-19T09:41:10;101428.0;;;23.02;68.97
64023;BME280;50264;52.088;5.296;2022-08-19T09:44:24;101436.0;;;23.17;70.09
64023;BME280;50264;52.088;5.296;2022-08-19T09:46:01;101430.0;;;23.06;69.99
64023;BME280;50264;52.088;5.296;2022-08-19T09:47:38;101432.0;;;23.18;70.33
64023;BME280;50264;52.088;5.296;2022-08-19T09:50:52;101431.0;;;23.32;68.61
64023;BME280;50264;52.088;5.296;2022-08-19T09:52:28;101426.0;;;23.65;70.08
64023;BME280;50264;52.088;5.296;2022-08-19T09:54:05;101430.0;;;23.84;66.62
64023;BME280;50264;52.088;5.296;2022-08-19T09:55:41;101430.0;;;23.66;66.98
64023;BME280;50264;52.088;5.296;2022-08-19T09:58:54;101431.0;;;23.79;68.31
64023;BME280;50264;52.088;5.296;2022-08-19T10:00:32;101430.0;;;23.79;66.85
64023;BME280;50264;52.088;5.296;2022-08-19T10:02:10;101425.0;;;23.79;65.58
64023;BME280;50264;52.088;5.296;2022-08-19T10:05:57;101422.0;;;23.94;66.27
64023;BME280;50264;52.088;5.296;2022-08-19T10:07:35;101423.0;;;23.95;66.05
64023;BME280;50264;52.088;5.296;2022-08-19T10:09:13;101430.0;;;23.7;66.77
64023;BME280;50264;52.088;5.296;2022-08-19T10:10:51;101426.0;;;23.63;67.74
64023;BME280;50264;52.088;5.296;2022-08-19T10:12:28;101426.0;;;23.71;65.81
64023;BME280;50264;52.088;5.296;2022-08-19T10:15:43;101425.0;;;23.71;67.06
64023;BME280;50264;52.088;5.296;2022-08-19T10:17:20;101426.0;;;23.69;67.81
64023;BME280;50264;52.088;5.296;2022-08-19T10:18:57;101424.0;;;23.75;68.83
64023;BME280;50264;52.088;5.296;2022-08-19T10:22:14;101423.0;;;23.86;69.83
64023;BME280;50264;52.088;5.296;2022-08-19T10:23:53;101417.0;;;23.91;68.58
64023;BME280;50264;52.088;5.296;2022-08-19T10:25:32;101420.0;;;24.02;70.48
64023;BME280;50264;52.088;5.296;2022-08-19T10:27:10;101420.0;;;23.84;67.28
64023;BME280;50264;52.088;5.296;2022-08-19T10:30:23;101417.0;;;23.76;68.22
64023;BME280;50264;52.088;5.296;2022-08-19T10:32:01;101420.0;;;23.76;68.19
64023;BME280;50264;52.088;5.296;2022-08-19T10:33:38;101416.0;;;23.88;69.12
64023;BME280;50264;52.088;5.296;2022-08-19T10:36:52;101417.0;;;23.98;68.91
64023;BME280;50264;52.088;5.296;2022-08-19T10:38:28;101416.0;;;24.1;69.56
64023;BME280;50264;52.088;5.296;2022-08-19T10:40:08;101416.0;;;24.28;69.33
64023;BME280;50264;52.088;5.296;2022-08-19T10:41:44;101420.0;;;24.33;67.89
64023;BME280;50264;52.088;5.296;2022-08-19T10:44:57;101416.0;;;24.5;68.38
64023;BME280;50264;52.088;5.296;2022-08-19T10:46:37;101415.0;;;24.44;66.48
64023;BME280;50264;52.088;5.296;2022-08-19T10:48:16;101415.0;;;24.36;66.06
64023;BME280;50264;52.088;5.296;2022-08-19T10:52:47;101412.0;;;24.1;68.75
64023;BME280;50264;52.088;5.296;2022-08-19T10:56:51;101415.0;;;24.33;70.2
64023;BME280;50264;52.088;5.296;2022-08-19T10:58:27;101412.0;;;24.68;68.48
64023;BME280;50264;52.088;5.296;2022-08-19T11:01:41;101411.0;;;24.62;66.11
64023;BME280;50264;52.088;5.296;2022-08-19T11:03:19;101405.0;;;24.7;66.67
64023;BME280;50264;52.088;5.296;2022-08-19T11:04:56;101401.0;;;24.75;68.36
64023;BME280;50264;52.088;5.296;2022-08-19T11:08:11;101408.0;;;24.94;67.3
64023;BME280;50264;52.088;5.296;2022-08-19T11:09:48;101412.0;;;24.93;65.66
64023;BME280;50264;52.088;5.296;2022-08-19T11:11:24;101411.0;;;24.98;67.66
64023;BME280;50264;52.088;5.296;2022-08-19T11:13:00;101405.0;;;24.93;65.03
64023;BME280;50264;52.088;5.296;2022-08-19T11:16:15;101407.0;;;25.01;67.33
64023;BME280;50264;52.088;5.296;2022-08-19T11:17:54;101405.0;;;24.95;66.63
64023;BME280;50264;52.088;5.296;2022-08-19T11:19:32;101394.0;;;25.09;67.58
64023;BME280;50264;52.088;5.296;2022-08-19T11:22:51;101397.0;;;25.46;67.33
64023;BME280;50264;52.088;5.296;2022-08-19T11:24:28;101394.0;;;25.62;65.85